Time;durP1;ratioP1;P1;durP2;ratioP2;P2;SDS_P1;SDS_P2;PMS_P1;PMS_P2;Temp;Humidity;BMP_temperature;BMP_pressure;BME280_temperature;BME280_humidity;BME280_pressure;Samples;Min_cycle;Max_cycle;Signal;HPM_P1;HPM_P2
2021/12/15 00:01:33;;;;;;;7.30;4.60;;;9.60;99.90;;;;;;5092666;28;20761;-53
2021/12/15 00:04:00;;;;;;;6.88;5.43;;;9.60;99.90;;;;;;5092943;28;20165;-53
2021/12/15 00:06:26;;;;;;;7.45;4.88;;;9.60;99.90;;;;;;5093215;28;20204;-53
2021/12/15 00:08:55;;;;;;;11.48;5.40;;;9.60;99.90;;;;;;5092843;28;20533;-53
2021/12/15 00:11:23;;;;;;;10.32;4.70;;;9.60;99.90;;;;;;5092993;28;20207;-53
2021/12/15 00:13:52;;;;;;;9.15;5.53;;;9.60;99.90;;;;;;5092444;28;20652;-54
2021/12/15 00:16:18;;;;;;;9.50;4.93;;;9.60;99.90;;;;;;5092477;28;20226;-53
2021/12/15 00:18:44;;;;;;;8.95;5.10;;;9.60;99.90;;;;;;5092470;28;20177;-53
2021/12/15 00:21:16;;;;;;;10.38;5.10;;;9.60;99.90;;;;;;5092423;28;20180;-53
2021/12/15 00:23:43;;;;;;;10.35;4.88;;;9.60;99.90;;;;;;5092263;28;20703;-53
2021/12/15 00:26:08;;;;;;;7.03;4.93;;;9.60;99.90;;;;;;5092476;28;20161;-53
2021/12/15 00:28:34;;;;;;;7.60;4.95;;;9.60;99.90;;;;;;5092396;28;20620;-53
2021/12/15 00:31:00;;;;;;;10.43;6.15;;;9.60;99.90;;;;;;5092279;28;20161;-53
2021/12/15 00:33:26;;;;;;;12.27;5.45;;;9.60;99.90;;;;;;5092195;28;20335;-53
2021/12/15 00:35:55;;;;;;;10.07;5.07;;;9.60;99.90;;;;;;5092489;28;20173;-53
2021/12/15 00:38:21;;;;;;;7.75;5.38;;;9.60;99.90;;;;;;5092881;28;20184;-53
2021/12/15 00:40:47;;;;;;;8.40;4.90;;;9.60;99.90;;;;;;5092154;28;20241;-53
2021/12/15 00:43:12;;;;;;;8.98;4.68;;;9.60;99.90;;;;;;5092078;28;20176;-53
2021/12/15 00:45:38;;;;;;;9.13;5.20;;;9.60;99.90;;;;;;5092099;28;20572;-53
2021/12/15 00:48:05;;;;;;;8.55;5.03;;;9.60;99.90;;;;;;5092118;28;20244;-53
2021/12/15 00:50:33;;;;;;;9.73;5.07;;;9.60;99.90;;;;;;5092274;28;20166;-53
2021/12/15 00:52:59;;;;;;;10.43;5.20;;;9.60;99.90;;;;;;5092018;28;20714;-53
2021/12/15 00:55:26;;;;;;;6.00;4.22;;;9.60;99.90;;;;;;5092383;28;20621;-53
2021/12/15 00:57:52;;;;;;;6.13;4.93;;;9.60;99.90;;;;;;5092307;28;20241;-53
2021/12/15 01:00:25;;;;;;;6.57;4.63;;;9.50;99.90;;;;;;5092092;28;20165;-53
2021/12/15 01:02:52;;;;;;;5.32;4.43;;;9.60;99.90;;;;;;5092316;28;20165;-53
2021/12/15 01:05:22;;;;;;;8.25;4.63;;;9.60;99.90;;;;;;5092179;28;20532;-53
2021/12/15 01:07:48;;;;;;;8.80;5.72;;;9.60;99.90;;;;;;5091916;28;20226;-53
2021/12/15 01:10:19;;;;;;;7.70;4.60;;;9.60;99.90;;;;;;5091826;28;20615;-53
2021/12/15 01:20:45;;;;;;;8.00;4.70;;;9.60;99.90;;;;;;5091994;28;20538;-53
2021/12/15 01:23:14;;;;;;;8.55;4.80;;;9.60;99.90;;;;;;5091757;28;20176;-52
2021/12/15 01:25:47;;;;;;;12.35;4.55;;;9.60;99.90;;;;;;5091929;28;20524;-52
2021/12/15 01:28:12;;;;;;;11.40;4.72;;;9.60;99.90;;;;;;5091747;28;20181;-51
2021/12/15 01:30:43;;;;;;;9.82;4.65;;;9.60;99.90;;;;;;5091701;28;20173;-51
2021/12/15 01:33:09;;;;;;;9.70;4.20;;;9.60;99.90;;;;;;5091484;28;20675;-50
2021/12/15 01:35:37;;;;;;;14.77;4.10;;;9.60;99.90;;;;;;5091610;28;20162;-50
2021/12/15 01:38:04;;;;;;;8.27;4.55;;;9.60;99.90;;;;;;5091646;28;20173;-51
2021/12/15 01:40:35;;;;;;;8.02;5.10;;;9.60;99.90;;;;;;5091557;28;20169;-51
2021/12/15 01:43:19;;;;;;;14.32;4.95;;;9.60;99.90;;;;;;5090269;28;20584;-51
2021/12/15 01:48:32;;;;;;;6.22;4.05;;;9.60;99.90;;;;;;5091546;28;20177;-51
2021/12/15 01:50:59;;;;;;;8.43;3.60;;;9.60;99.90;;;;;;5091479;28;20245;-51
2021/12/15 01:53:25;;;;;;;8.43;3.75;;;9.60;99.90;;;;;;5092088;28;20258;-51
2021/12/15 01:55:52;;;;;;;8.60;4.50;;;9.60;99.90;;;;;;5092062;28;20564;-51
2021/12/15 01:58:17;;;;;;;5.53;3.63;;;9.60;99.90;;;;;;5091533;28;20169;-52
2021/12/15 02:00:48;;;;;;;9.10;3.47;;;9.60;99.90;;;;;;5094604;28;20211;-51
2021/12/15 02:03:15;;;;;;;8.48;3.40;;;9.60;99.90;;;;;;5095098;28;20264;-51
2021/12/15 02:05:40;;;;;;;7.00;3.30;;;9.60;99.90;;;;;;5094962;28;20183;-52
2021/12/15 02:08:07;;;;;;;6.18;3.50;;;9.60;99.90;;;;;;5093683;28;20173;-52
2021/12/15 02:10:36;;;;;;;5.18;2.80;;;9.60;99.90;;;;;;5094816;28;20300;-52
2021/12/15 02:13:06;;;;;;;10.43;3.58;;;9.50;99.90;;;;;;5093500;28;20197;-52
2021/12/15 02:15:40;;;;;;;5.55;3.13;;;9.50;99.90;;;;;;5095103;28;20561;-52
2021/12/15 02:18:08;;;;;;;5.00;2.80;;;9.50;99.90;;;;;;5094824;28;20252;-52
2021/12/15 02:20:44;;;;;;;7.90;3.05;;;9.50;99.90;;;;;;5094708;28;20218;-52
2021/12/15 02:23:16;;;;;;;8.82;2.53;;;9.50;99.90;;;;;;5094761;28;20222;-52
2021/12/15 02:25:42;;;;;;;6.32;2.85;;;9.60;99.90;;;;;;5094963;28;20180;-52
2021/12/15 02:28:08;;;;;;;3.80;3.03;;;9.60;99.90;;;;;;5094612;28;20165;-52
2021/12/15 02:38:29;;;;;;;11.82;5.00;;;9.60;99.90;;;;;;5094660;28;20187;-51
2021/12/15 02:41:01;;;;;;;13.32;5.93;;;9.60;99.90;;;;;;5094709;28;20165;-52
2021/12/15 02:43:27;;;;;;;11.15;5.13;;;9.60;99.90;;;;;;5094560;28;20169;-52
2021/12/15 02:45:52;;;;;;;9.88;5.32;;;9.70;99.90;;;;;;5094347;28;20164;-51
2021/12/15 02:48:18;;;;;;;9.23;5.45;;;9.60;99.90;;;;;;5094240;28;20250;-52
2021/12/15 02:50:43;;;;;;;12.65;4.90;;;9.60;99.90;;;;;;5094106;28;20633;-52
2021/12/15 02:53:10;;;;;;;7.85;4.05;;;9.60;99.90;;;;;;5094052;28;20262;-52
2021/12/15 02:55:37;;;;;;;6.13;3.60;;;9.60;99.90;;;;;;5094083;28;20157;-52
2021/12/15 02:58:03;;;;;;;8.52;4.05;;;9.60;99.90;;;;;;5093928;28;20166;-52
2021/12/15 03:00:43;;;;;;;9.38;3.53;;;9.60;99.90;;;;;;5094067;28;20165;-52
2021/12/15 03:05:55;;;;;;;7.75;3.72;;;9.60;99.90;;;;;;5094103;28;20198;-51
2021/12/15 03:08:28;;;;;;;3.78;2.80;;;9.50;99.90;;;;;;5094413;28;20173;-52
2021/12/15 03:16:25;;;;;;;6.18;3.67;;;9.50;99.90;;;;;;5094289;28;20168;-52
2021/12/15 03:18:51;;;;;;;7.30;4.15;;;9.40;99.90;;;;;;5093979;28;20249;-52
2021/12/15 03:21:24;;;;;;;6.10;4.10;;;9.40;99.90;;;;;;5093635;28;20244;-52
2021/12/15 03:23:55;;;;;;;6.32;4.35;;;9.30;99.90;;;;;;5093550;28;20158;-52
2021/12/15 03:26:31;;;;;;;8.13;4.32;;;9.30;99.90;;;;;;5093684;28;20621;-52
2021/12/15 03:34:49;;;;;;;8.82;5.25;;;9.20;99.90;;;;;;5093334;28;20184;-52
2021/12/15 03:39:47;;;;;;;6.95;4.03;;;9.20;99.90;;;;;;5093489;28;20636;-51
2021/12/15 03:42:20;;;;;;;8.95;4.40;;;9.20;99.90;;;;;;5093164;28;20256;-52
2021/12/15 03:44:47;;;;;;;13.25;4.50;;;9.20;99.90;;;;;;5093060;28;20173;-52
2021/12/15 03:47:17;;;;;;;12.18;4.18;;;9.20;99.90;;;;;;5093068;28;20169;-52
2021/12/15 03:49:43;;;;;;;8.35;4.80;;;9.20;99.90;;;;;;5093044;28;20234;-52
2021/12/15 03:52:11;;;;;;;8.55;4.50;;;9.20;99.90;;;;;;5092949;28;20636;-51
2021/12/15 03:54:37;;;;;;;8.15;3.97;;;9.20;99.90;;;;;;5092939;28;20636;-52
2021/12/15 03:57:03;;;;;;;6.28;3.88;;;9.20;99.90;;;;;;5092913;28;20169;-52
2021/12/15 03:59:29;;;;;;;9.48;4.03;;;9.20;99.90;;;;;;5093000;28;20177;-51
2021/12/15 04:01:55;;;;;;;11.75;3.95;;;9.10;99.90;;;;;;5093177;28;20692;-52
2021/12/15 04:04:21;;;;;;;13.10;4.03;;;9.10;99.90;;;;;;5093331;28;20203;-52
2021/12/15 04:06:47;;;;;;;10.20;4.70;;;9.10;99.90;;;;;;5092733;28;20637;-52
2021/12/15 04:09:14;;;;;;;7.22;4.13;;;9.10;99.90;;;;;;5092410;28;20209;-51
2021/12/15 04:11:41;;;;;;;7.15;4.07;;;9.10;99.90;;;;;;5092661;28;20214;-52
2021/12/15 04:14:11;;;;;;;8.52;4.45;;;9.10;99.90;;;;;;5092773;28;20247;-52
2021/12/15 04:16:45;;;;;;;12.90;4.50;;;9.10;99.90;;;;;;5092712;28;20641;-52
2021/12/15 04:19:19;;;;;;;7.93;3.85;;;9.10;99.90;;;;;;5092569;28;20166;-52
2021/12/15 04:21:45;;;;;;;5.90;3.53;;;9.10;99.90;;;;;;5092422;28;20169;-53
2021/12/15 04:24:16;;;;;;;5.22;4.00;;;9.10;99.90;;;;;;5091203;28;20253;-53
2021/12/15 04:26:43;;;;;;;13.70;4.47;;;9.10;99.90;;;;;;5092402;28;20176;-52
2021/12/15 04:29:09;;;;;;;8.25;4.07;;;9.10;99.90;;;;;;5092587;28;20180;-52
2021/12/15 04:31:40;;;;;;;9.18;4.22;;;9.10;99.90;;;;;;5092394;28;20612;-52
2021/12/15 04:34:09;;;;;;;10.13;4.38;;;9.00;99.90;;;;;;5092216;28;20204;-52
2021/12/15 04:36:45;;;;;;;13.73;4.68;;;9.10;99.90;;;;;;5092550;28;20242;-53
2021/12/15 04:39:15;;;;;;;8.63;4.05;;;9.10;99.90;;;;;;5092510;28;20176;-53
2021/12/15 04:41:46;;;;;;;6.55;4.15;;;9.00;99.90;;;;;;5092247;28;20172;-53
2021/12/15 04:44:12;;;;;;;10.15;4.30;;;9.00;99.90;;;;;;5092385;28;20183;-53
2021/12/15 04:46:44;;;;;;;12.75;4.40;;;9.10;99.90;;;;;;5092421;28;20172;-52
2021/12/15 04:49:12;;;;;;;9.57;3.80;;;9.10;99.90;;;;;;5092087;28;20165;-53
2021/12/15 04:51:38;;;;;;;8.63;4.10;;;9.10;99.90;;;;;;5090729;28;20173;-53
2021/12/15 04:54:05;;;;;;;6.18;4.40;;;9.10;99.90;;;;;;5091957;28;20270;-53
2021/12/15 04:56:30;;;;;;;10.20;5.50;;;9.10;99.90;;;;;;5091960;28;20165;-53
2021/12/15 04:58:56;;;;;;;5.93;4.00;;;9.10;99.90;;;;;;5092077;28;20637;-53
2021/12/15 05:01:23;;;;;;;10.38;4.03;;;9.10;99.90;;;;;;5092484;28;20208;-53
2021/12/15 05:03:49;;;;;;;4.95;3.85;;;9.10;99.90;;;;;;5091824;28;20197;-53
2021/12/15 05:06:15;;;;;;;5.72;3.47;;;9.10;99.90;;;;;;5091775;28;20200;-52
2021/12/15 05:08:41;;;;;;;6.50;4.05;;;9.10;99.90;;;;;;5090238;28;20169;-53
2021/12/15 05:11:09;;;;;;;7.03;3.80;;;9.10;99.90;;;;;;5071957;28;20231;-53
2021/12/15 05:13:36;;;;;;;7.65;3.67;;;9.10;99.90;;;;;;5071591;28;20224;-53
2021/12/15 05:16:03;;;;;;;7.25;3.65;;;9.10;99.90;;;;;;5071832;28;20292;-53
2021/12/15 05:18:29;;;;;;;3.88;3.28;;;9.10;99.90;;;;;;5070320;28;20181;-53
2021/12/15 05:20:55;;;;;;;4.68;3.45;;;9.10;99.90;;;;;;5071963;28;20249;-53
2021/12/15 05:23:27;;;;;;;8.15;3.65;;;9.10;99.90;;;;;;5072127;28;20250;-52
2021/12/15 05:25:53;;;;;;;6.00;3.95;;;9.10;99.90;;;;;;5071769;28;20166;-53
2021/12/15 05:28:19;;;;;;;6.07;3.78;;;9.10;99.90;;;;;;5071481;28;20178;-52
2021/12/15 05:30:44;;;;;;;4.90;3.67;;;9.10;99.90;;;;;;5071506;28;20219;-53
2021/12/15 05:33:10;;;;;;;5.00;3.95;;;9.00;99.90;;;;;;5071477;28;20194;-52
2021/12/15 05:35:37;;;;;;;3.85;3.42;;;9.00;99.90;;;;;;5074463;28;20206;-53
2021/12/15 05:38:04;;;;;;;4.50;3.60;;;9.00;99.90;;;;;;5075167;28;20188;-53
2021/12/15 05:40:31;;;;;;;6.10;3.60;;;9.00;99.90;;;;;;5075192;28;20170;-52
2021/12/15 05:42:57;;;;;;;5.13;3.53;;;9.00;99.90;;;;;;5075221;28;20178;-53
2021/12/15 05:45:25;;;;;;;4.05;3.10;;;9.00;99.90;;;;;;5075456;28;20166;-53
2021/12/15 05:47:51;;;;;;;4.47;3.22;;;9.00;99.90;;;;;;5075725;28;20173;-53
2021/12/15 05:50:18;;;;;;;5.07;3.13;;;9.00;99.90;;;;;;5075008;28;20163;-53
2021/12/15 05:52:44;;;;;;;5.63;3.60;;;9.00;99.90;;;;;;5074939;28;20292;-52
2021/12/15 05:55:12;;;;;;;5.97;3.38;;;9.00;99.90;;;;;;5075290;28;20194;-53
2021/12/15 05:57:38;;;;;;;5.15;4.07;;;9.00;99.90;;;;;;5074901;28;20162;-52
2021/12/15 06:00:13;;;;;;;6.78;3.55;;;9.00;99.90;;;;;;5074830;28;20169;-53
2021/12/15 06:02:39;;;;;;;5.35;3.63;;;9.00;99.90;;;;;;5074882;28;20173;-53
2021/12/15 06:05:06;;;;;;;5.00;3.83;;;9.00;99.90;;;;;;5075023;28;20178;-53
2021/12/15 06:07:32;;;;;;;4.00;3.35;;;9.00;99.90;;;;;;5074811;28;20166;-53
2021/12/15 06:09:57;;;;;;;4.50;3.13;;;9.00;99.90;;;;;;5085274;28;20622;-53
2021/12/15 06:12:23;;;;;;;4.60;3.75;;;9.00;99.90;;;;;;5095294;28;20161;-53
2021/12/15 06:14:49;;;;;;;4.50;3.80;;;9.00;99.90;;;;;;5094829;28;20214;-52
2021/12/15 06:17:14;;;;;;;4.25;3.85;;;9.00;99.90;;;;;;5094553;28;20161;-52
2021/12/15 06:19:40;;;;;;;7.15;4.03;;;9.00;99.90;;;;;;5094749;28;20180;-52
2021/12/15 06:22:08;;;;;;;5.38;3.85;;;9.00;99.90;;;;;;5094608;28;20172;-52
2021/12/15 06:24:36;;;;;;;6.70;3.92;;;9.00;99.90;;;;;;5094897;28;20596;-52
2021/12/15 06:27:09;;;;;;;4.78;4.03;;;9.00;99.90;;;;;;5094463;28;20657;-52
2021/12/15 06:29:36;;;;;;;6.03;4.60;;;9.00;99.90;;;;;;5094603;28;20173;-52
2021/12/15 06:32:03;;;;;;;5.07;3.90;;;9.00;99.90;;;;;;5094837;28;20222;-54
2021/12/15 06:34:29;;;;;;;7.13;4.65;;;9.00;99.90;;;;;;5094413;28;20212;-53
2021/12/15 06:36:57;;;;;;;5.88;4.10;;;9.00;99.90;;;;;;5094682;28;20174;-53
2021/12/15 06:39:22;;;;;;;5.20;4.13;;;9.00;99.90;;;;;;5094650;28;20637;-52
2021/12/15 06:41:48;;;;;;;6.28;4.22;;;9.00;99.90;;;;;;5094402;28;20180;-52
2021/12/15 06:44:15;;;;;;;9.45;4.28;;;9.00;99.90;;;;;;5094305;28;20165;-52
2021/12/15 07:00:04;;;;;;;14.35;5.00;;;9.00;99.90;;;;;;5072491;28;20162;-53
2021/12/15 07:02:31;;;;;;;8.52;4.93;;;9.00;99.90;;;;;;5072219;28;20166;-53
2021/12/15 07:04:57;;;;;;;10.63;4.93;;;9.00;99.90;;;;;;5072328;28;20632;-57
2021/12/15 07:07:23;;;;;;;10.18;5.35;;;9.00;99.90;;;;;;5072810;28;20206;-53
2021/12/15 07:09:49;;;;;;;12.50;5.15;;;9.00;99.90;;;;;;5072859;28;20688;-53
2021/12/15 07:12:15;;;;;;;12.25;4.25;;;9.00;99.90;;;;;;5071829;28;20181;-50
2021/12/15 07:14:41;;;;;;;12.48;5.90;;;9.00;99.90;;;;;;5072825;28;20174;-50
2021/12/15 07:17:14;;;;;;;17.85;5.32;;;9.00;99.90;;;;;;5071418;28;20184;-53
2021/12/15 07:22:33;;;;;;;9.18;5.57;;;9.00;99.90;;;;;;5072101;28;20172;-53
2021/12/15 07:25:00;;;;;;;16.40;6.05;;;9.00;99.90;;;;;;5071973;28;20158;-52
2021/12/15 07:27:26;;;;;;;9.82;6.15;;;9.00;99.90;;;;;;5071904;28;20275;-53
2021/12/15 07:29:52;;;;;;;10.48;5.03;;;9.00;99.90;;;;;;5072289;28;20288;-49
2021/12/15 07:32:18;;;;;;;11.55;5.38;;;9.00;99.90;;;;;;5071775;28;20254;-51
2021/12/15 07:34:44;;;;;;;13.63;5.15;;;9.00;99.90;;;;;;5071684;28;20257;-50
2021/12/15 07:37:10;;;;;;;11.98;5.47;;;9.00;99.90;;;;;;5071798;28;20249;-48
2021/12/15 07:39:37;;;;;;;9.93;5.30;;;9.00;99.90;;;;;;5071824;28;20174;-52
2021/12/15 07:42:07;;;;;;;8.10;5.22;;;9.00;99.90;;;;;;5068769;28;20251;-51
2021/12/15 07:44:34;;;;;;;8.95;5.03;;;9.00;99.90;;;;;;5090550;28;20173;-52
2021/12/15 07:47:00;;;;;;;11.27;5.35;;;9.00;99.90;;;;;;5092120;28;20173;-53
2021/12/15 07:49:26;;;;;;;8.00;4.97;;;9.00;99.90;;;;;;5091774;28;20169;-49
2021/12/15 07:52:00;;;;;;;7.60;4.68;;;9.00;99.90;;;;;;5091779;28;20198;-52
2021/12/15 07:54:30;;;;;;;6.28;5.03;;;9.00;99.90;;;;;;5090634;28;20212;-48
2021/12/15 07:56:56;;;;;;;9.07;4.80;;;9.00;99.90;;;;;;5090976;28;20180;-45
2021/12/15 07:59:22;;;;;;;8.15;4.78;;;9.00;99.90;;;;;;5092202;28;20181;-53
2021/12/15 08:01:48;;;;;;;8.90;4.78;;;9.00;99.90;;;;;;5091572;28;20169;-52
2021/12/15 08:04:13;;;;;;;9.15;4.75;;;9.10;99.90;;;;;;5091745;28;20311;-53
2021/12/15 08:06:39;;;;;;;7.20;5.15;;;9.10;99.90;;;;;;5091485;28;20617;-53
2021/12/15 08:09:05;;;;;;;8.05;5.53;;;9.00;99.90;;;;;;5091438;28;20212;-53
2021/12/15 08:11:31;;;;;;;12.02;5.82;;;9.10;99.90;;;;;;5091330;28;20157;-58
2021/12/15 08:13:57;;;;;;;10.20;5.45;;;9.10;99.90;;;;;;5091162;28;20683;-49
2021/12/15 08:16:24;;;;;;;11.13;5.43;;;9.00;99.90;;;;;;5091508;28;20509;-52
2021/12/15 08:18:50;;;;;;;12.75;5.60;;;9.00;99.90;;;;;;5091244;28;20280;-48
2021/12/15 08:21:16;;;;;;;6.82;5.20;;;7.60;99.90;;;;;;5089996;28;20535;-52
2021/12/15 08:23:42;;;;;;;7.60;5.07;;;9.10;99.90;;;;;;5090982;28;20223;-51
2021/12/15 08:26:08;;;;;;;9.75;4.50;;;9.10;99.90;;;;;;5091003;28;20165;-59
2021/12/15 08:28:34;;;;;;;11.35;5.10;;;9.10;99.90;;;;;;5091049;28;20221;-57
2021/12/15 08:31:00;;;;;;;7.88;4.50;;;9.10;99.90;;;;;;5091003;28;20633;-58
2021/12/15 08:33:27;;;;;;;7.80;4.75;;;9.10;99.90;;;;;;5090903;28;20246;-49
2021/12/15 08:35:58;;;;;;;6.00;4.13;;;9.10;99.90;;;;;;5091521;28;20165;-51
2021/12/15 08:38:26;;;;;;;11.02;4.25;;;9.20;99.90;;;;;;5091187;28;20637;-49
2021/12/15 08:40:52;;;;;;;7.07;4.35;;;9.10;99.90;;;;;;5091161;28;20204;-50
2021/12/15 08:43:18;;;;;;;4.63;3.70;;;9.10;99.90;;;;;;5091117;28;20170;-48
2021/12/15 08:45:51;;;;;;;8.98;4.00;;;9.10;99.90;;;;;;5090655;28;20165;-48
2021/12/15 08:48:16;;;;;;;5.68;4.05;;;9.10;99.90;;;;;;5090742;28;20162;-48
2021/12/15 08:50:43;;;;;;;5.50;3.83;;;9.20;99.90;;;;;;5090791;28;20188;-50
2021/12/15 08:53:11;;;;;;;7.18;4.15;;;9.20;99.90;;;;;;5090642;28;20200;-50
2021/12/15 08:55:47;;;;;;;8.00;4.10;;;9.20;99.90;;;;;;5073757;28;20188;-51
2021/12/15 08:58:15;;;;;;;5.28;4.28;;;9.30;99.90;;;;;;5070309;28;20172;-51
2021/12/15 09:00:43;;;;;;;5.00;3.53;;;9.30;99.90;;;;;;5070389;28;20204;-51
2021/12/15 09:03:10;;;;;;;7.82;3.85;;;9.30;99.90;;;;;;5070419;28;20165;-51
2021/12/15 09:05:37;;;;;;;5.22;3.70;;;9.30;99.90;;;;;;5070289;28;20186;-51
2021/12/15 09:08:05;;;;;;;8.07;3.50;;;9.30;99.90;;;;;;5070398;28;20714;-50
2021/12/15 09:10:33;;;;;;;9.38;3.72;;;9.30;99.90;;;;;;5073294;28;20741;-48
2021/12/15 09:13:00;;;;;;;7.63;3.83;;;9.30;99.90;;;;;;5074682;28;20296;-51
2021/12/15 09:15:26;;;;;;;6.35;4.10;;;9.40;99.90;;;;;;5074367;28;20661;-49
2021/12/15 09:17:52;;;;;;;6.68;3.42;;;9.40;99.90;;;;;;5074609;28;20180;-51
2021/12/15 09:20:21;;;;;;;7.90;4.03;;;9.40;99.90;;;;;;5074351;28;20220;-51
2021/12/15 09:22:47;;;;;;;7.28;3.47;;;9.40;99.90;;;;;;5074169;28;20193;-50
2021/12/15 09:25:14;;;;;;;3.95;3.47;;;9.40;99.90;;;;;;5072973;28;20214;-51
2021/12/15 09:27:41;;;;;;;5.43;3.33;;;9.40;99.90;;;;;;5074156;28;20260;-51
2021/12/15 09:30:11;;;;;;;5.88;3.53;;;9.40;99.90;;;;;;5074077;28;20673;-51
2021/12/15 09:32:37;;;;;;;5.00;3.60;;;9.40;99.90;;;;;;5074341;28;20205;-52
2021/12/15 09:35:05;;;;;;;5.68;3.55;;;9.50;99.90;;;;;;5072692;28;20173;-50
2021/12/15 09:37:31;;;;;;;4.45;3.17;;;9.50;99.90;;;;;;5077502;28;20207;-51
2021/12/15 09:39:57;;;;;;;4.05;3.65;;;9.50;99.90;;;;;;5094192;28;20165;-51
2021/12/15 09:42:29;;;;;;;3.85;3.00;;;9.50;99.90;;;;;;5094470;28;20198;-49
2021/12/15 09:45:15;;;;;;;7.03;2.97;;;9.50;99.90;;;;;;5094384;28;20259;-48
2021/12/15 10:19:51;;;;;;;6.65;4.10;;;9.60;99.90;;;;;;5092966;28;20199;-50
2021/12/15 10:22:38;;;;;;;9.05;3.70;;;9.60;99.90;;;;;;5093312;28;20279;-50
2021/12/15 10:25:34;;;;;;;6.05;3.67;;;9.60;99.90;;;;;;5093486;28;20641;-49
2021/12/15 10:28:06;;;;;;;7.60;4.20;;;9.60;99.90;;;;;;5093267;28;20161;-49
2021/12/15 10:30:43;;;;;;;10.60;7.15;;;9.60;99.90;;;;;;5093660;28;20169;-50
2021/12/15 10:33:12;;;;;;;6.60;4.30;;;9.60;99.90;;;;;;5093148;28;20204;-50
2021/12/15 10:35:41;;;;;;;8.38;3.92;;;9.70;99.90;;;;;;5093202;28;20169;-51
2021/12/15 10:38:26;;;;;;;8.98;4.00;;;9.70;99.90;;;;;;5092836;28;20162;-50
2021/12/15 10:41:09;;;;;;;8.45;4.50;;;9.70;99.90;;;;;;5093596;28;20708;-50
2021/12/15 10:43:40;;;;;;;7.60;3.78;;;9.70;99.90;;;;;;5093420;28;20194;-50
2021/12/15 10:46:17;;;;;;;8.60;4.30;;;9.70;99.90;;;;;;5093132;28;20161;-50
2021/12/15 10:48:53;;;;;;;8.43;3.80;;;9.80;99.90;;;;;;5093056;28;20210;-51
2021/12/15 10:51:36;;;;;;;7.00;3.72;;;9.80;99.90;;;;;;5092938;28;20256;-49
2021/12/15 10:54:10;;;;;;;5.82;4.13;;;9.30;99.90;;;;;;5092983;28;20204;-50
2021/12/15 10:56:48;;;;;;;6.43;3.97;;;9.90;99.90;;;;;;5092953;28;20230;-50
2021/12/15 10:59:15;;;;;;;7.18;3.47;;;9.90;99.90;;;;;;5092904;28;20169;-50
2021/12/15 11:01:51;;;;;;;4.85;4.15;;;9.90;99.90;;;;;;5092841;28;20169;-50
2021/12/15 11:04:35;;;;;;;7.97;3.80;;;9.90;99.90;;;;;;5092558;28;20628;-51
2021/12/15 11:07:03;;;;;;;7.13;3.70;;;9.90;99.90;;;;;;5092659;28;20227;-50
2021/12/15 11:09:33;;;;;;;4.85;3.20;;;9.90;99.90;;;;;;5092703;28;20320;-51
2021/12/15 11:12:03;;;;;;;4.57;3.50;;;9.90;99.90;;;;;;5092673;28;20162;-51
2021/12/15 11:14:37;;;;;;;4.72;3.83;;;9.90;99.90;;;;;;5092661;28;20566;-51
2021/12/15 11:17:37;;;;;;;6.15;3.80;;;9.90;99.90;;;;;;5092587;28;20181;-51
2021/12/15 11:20:13;;;;;;;6.03;3.88;;;10.00;99.90;;;;;;5092367;28;20177;-51
2021/12/15 11:22:38;;;;;;;4.43;3.58;;;10.00;99.90;;;;;;5092373;28;20523;-49
2021/12/15 11:25:20;;;;;;;4.80;4.25;;;10.00;99.90;;;;;;5092653;28;20260;-50
2021/12/15 11:27:52;;;;;;;7.20;5.15;;;10.00;99.90;;;;;;5092225;28;20172;-49
2021/12/15 11:30:34;;;;;;;5.95;4.95;;;10.10;99.90;;;;;;5091841;28;20166;-49
2021/12/15 11:33:09;;;;;;;6.32;5.32;;;10.10;99.90;;;;;;5091102;28;20222;-51
2021/12/15 11:35:48;;;;;;;5.78;4.57;;;10.10;99.90;;;;;;5092259;28;20252;-52
2021/12/15 11:38:19;;;;;;;5.53;5.03;;;10.10;99.90;;;;;;5092330;28;20195;-51
2021/12/15 11:41:04;;;;;;;5.65;5.07;;;10.10;99.90;;;;;;5091588;28;20165;-50
2021/12/15 11:43:45;;;;;;;6.30;4.38;;;10.10;99.90;;;;;;5092074;28;20173;-51
2021/12/15 11:46:45;;;;;;;7.68;5.13;;;10.10;99.90;;;;;;5091926;28;20204;-52
2021/12/15 11:49:14;;;;;;;5.47;4.75;;;10.10;99.90;;;;;;5081112;28;20191;-51
2021/12/15 11:51:43;;;;;;;6.97;5.28;;;10.10;99.90;;;;;;5091406;28;20166;-52
2021/12/15 11:54:28;;;;;;;6.03;5.20;;;10.10;99.90;;;;;;5091230;28;20208;-50
2021/12/15 11:56:58;;;;;;;5.47;4.55;;;10.10;99.90;;;;;;5091584;28;20165;-51
2021/12/15 11:59:30;;;;;;;7.45;5.40;;;10.20;99.90;;;;;;5091535;28;20166;-51
2021/12/15 12:02:22;;;;;;;5.15;4.60;;;10.10;99.90;;;;;;5091766;28;20161;-51
2021/12/15 12:04:57;;;;;;;5.90;5.30;;;10.10;99.90;;;;;;5091915;28;20196;-51
2021/12/15 12:07:41;;;;;;;6.07;5.20;;;10.10;99.90;;;;;;5091889;28;20165;-51
2021/12/15 12:10:12;;;;;;;6.15;5.20;;;10.20;99.90;;;;;;5091351;28;20220;-51
2021/12/15 12:12:50;;;;;;;7.25;6.10;;;10.10;99.90;;;;;;5091726;28;20184;-52
2021/12/15 12:15:19;;;;;;;8.10;5.35;;;10.20;99.90;;;;;;5091702;28;20202;-51
2021/12/15 12:17:48;;;;;;;7.05;5.60;;;10.10;99.90;;;;;;5091437;28;20172;-51
2021/12/15 12:20:19;;;;;;;5.70;5.07;;;10.10;99.90;;;;;;5082175;28;20185;-51
2021/12/15 12:22:47;;;;;;;6.28;5.32;;;10.20;99.90;;;;;;5091250;28;20173;-52
2021/12/15 12:25:20;;;;;;;8.07;5.03;;;10.20;99.90;;;;;;5091208;28;20161;-51
2021/12/15 12:27:47;;;;;;;5.50;4.80;;;10.20;99.90;;;;;;5091065;28;20166;-51
2021/12/15 12:30:19;;;;;;;6.28;5.00;;;10.20;99.90;;;;;;5069372;28;20253;-51
2021/12/15 12:32:46;;;;;;;6.05;5.40;;;10.20;99.90;;;;;;5071006;28;20248;-51
2021/12/15 12:35:17;;;;;;;6.82;5.22;;;10.20;99.90;;;;;;5070773;28;20180;-51
2021/12/15 12:37:43;;;;;;;5.68;5.07;;;10.20;99.90;;;;;;5070847;28;20170;-52
2021/12/15 12:40:20;;;;;;;6.07;5.32;;;10.30;99.90;;;;;;5070858;28;20203;-52
2021/12/15 12:42:46;;;;;;;6.45;5.45;;;10.30;99.90;;;;;;5070836;28;20282;-52
2021/12/15 12:45:36;;;;;;;5.63;5.03;;;10.30;99.90;;;;;;5070852;28;20166;-52
2021/12/15 12:48:47;;;;;;;7.50;6.40;;;10.20;99.90;;;;;;5071024;28;20170;-52
2021/12/15 12:59:43;;;;;;;8.05;6.20;;;10.40;99.90;;;;;;5070929;28;20587;-51
2021/12/15 13:02:46;;;;;;;9.10;6.60;;;10.40;99.90;;;;;;5070822;28;20192;-51
2021/12/15 13:05:30;;;;;;;7.00;5.85;;;10.30;99.90;;;;;;5058737;28;20177;-50
2021/12/15 13:07:59;;;;;;;8.80;6.00;;;10.40;99.90;;;;;;5070431;28;20170;-49
2021/12/15 13:10:52;;;;;;;11.13;6.40;;;10.40;99.90;;;;;;5070406;28;20210;-49
2021/12/15 13:13:25;;;;;;;8.13;6.20;;;10.40;99.90;;;;;;5070182;28;20201;-50
2021/12/15 13:16:11;;;;;;;10.38;7.80;;;10.40;99.90;;;;;;5070214;28;20264;-49
2021/12/15 13:18:54;;;;;;;8.35;7.38;;;10.40;99.90;;;;;;5070459;28;20169;-49
2021/12/15 13:21:48;;;;;;;9.10;7.28;;;10.40;99.90;;;;;;5070001;28;20166;-50
2021/12/15 13:30:49;;;;;;;15.60;8.82;;;10.30;99.90;;;;;;5070446;28;20180;-49
2021/12/15 13:33:29;;;;;;;12.10;8.52;;;10.30;99.90;;;;;;5070224;28;21267;-52
2021/12/15 13:35:57;;;;;;;15.13;10.52;;;10.30;99.90;;;;;;5068601;28;20170;-49
2021/12/15 13:38:43;;;;;;;17.35;11.05;;;10.30;99.90;;;;;;5070376;28;20166;-52
2021/12/15 13:41:26;;;;;;;15.75;10.27;;;10.20;99.90;;;;;;5069983;28;20173;-52
2021/12/15 13:44:06;;;;;;;17.67;11.85;;;10.20;99.90;;;;;;5070555;28;20178;-47
2021/12/15 13:46:39;;;;;;;17.67;10.55;;;10.30;99.90;;;;;;5069966;28;20224;-50
2021/12/15 13:49:33;;;;;;;18.40;11.60;;;10.20;99.90;;;;;;5068650;28;20170;-51
2021/12/15 13:52:06;;;;;;;21.15;11.02;;;10.20;99.90;;;;;;5066078;28;20198;-49
2021/12/15 13:54:37;;;;;;;17.35;11.98;;;10.20;99.90;;;;;;5059997;28;20285;-49
2021/12/15 13:57:12;;;;;;;15.52;11.45;;;10.20;99.90;;;;;;5068000;28;20181;-48
2021/12/15 13:59:53;;;;;;;16.45;11.40;;;10.20;99.90;;;;;;5073624;28;20526;-50
2021/12/15 14:02:18;;;;;;;16.88;12.20;;;10.20;99.90;;;;;;5073236;28;20169;-49
2021/12/15 14:04:45;;;;;;;18.38;11.52;;;10.20;99.90;;;;;;5073287;28;20181;-51
2021/12/15 14:07:31;;;;;;;20.77;13.13;;;10.20;99.90;;;;;;5073636;28;20174;-51
2021/12/15 14:10:18;;;;;;;15.68;12.85;;;10.20;99.90;;;;;;5073336;28;20221;-51
2021/12/15 14:15:13;;;;;;;17.17;12.80;;;10.20;99.90;;;;;;5073842;28;20178;-49
2021/12/15 14:17:39;;;;;;;18.88;11.98;;;10.20;99.90;;;;;;5073794;28;20524;-51
2021/12/15 14:20:16;;;;;;;17.60;12.18;;;10.20;99.90;;;;;;5073489;28;20178;-51
2021/12/15 14:22:43;;;;;;;18.08;12.23;;;10.20;99.90;;;;;;5073049;28;20257;-51
2021/12/15 14:25:09;;;;;;;16.88;11.90;;;10.20;99.90;;;;;;5073410;28;20174;-51
2021/12/15 14:27:35;;;;;;;14.65;10.65;;;10.10;99.90;;;;;;5073298;28;20162;-51
2021/12/15 14:30:02;;;;;;;18.92;12.80;;;10.10;99.90;;;;;;5073286;28;20208;-51
2021/12/15 14:32:27;;;;;;;17.10;11.90;;;10.10;99.90;;;;;;5073006;28;20166;-51
2021/12/15 14:34:53;;;;;;;15.77;11.82;;;10.10;99.90;;;;;;5073573;28;20232;-51
2021/12/15 14:37:21;;;;;;;21.27;12.30;;;10.10;99.90;;;;;;5073395;28;20536;-52
2021/12/15 14:39:50;;;;;;;15.73;11.73;;;10.10;99.90;;;;;;5073028;28;20170;-51
2021/12/15 14:42:38;;;;;;;18.75;12.65;;;10.10;99.90;;;;;;5072011;28;20170;-50
2021/12/15 14:45:06;;;;;;;13.95;11.85;;;10.00;99.90;;;;;;5072743;28;20533;-51
2021/12/15 14:47:35;;;;;;;17.17;12.35;;;10.00;99.90;;;;;;5072654;28;20166;-51